Time;durP1;ratioP1;P1;durP2;ratioP2;P2;SDS_P1;SDS_P2;PMS_P1;PMS_P2;Temp;Humidity;BMP_temperature;BMP_pressure;BME280_temperature;BME280_humidity;BME280_pressure;Samples;Min_cycle;Max_cycle;Signal;HPM_P1;HPM_P2
2023/08/18 00:00:06;;;;;;;2.65;1.50;;;25.50;63.10;;;;;;2306014;55;21040;-67
2023/08/18 00:02:32;;;;;;;3.40;1.70;;;25.40;62.90;;;;;;2298651;55;21010;-69
2023/08/18 00:04:58;;;;;;;3.87;1.92;;;25.40;62.90;;;;;;2313119;55;21924;-69
2023/08/18 00:07:26;;;;;;;2.97;1.52;;;25.30;62.80;;;;;;2553260;54;20983;-71
2023/08/18 00:09:55;;;;;;;3.30;1.58;;;25.30;62.80;;;;;;2313995;55;21762;-70
2023/08/18 00:12:21;;;;;;;3.30;1.67;;;25.20;62.80;;;;;;2313870;55;20952;-70
2023/08/18 00:14:48;;;;;;;3.92;1.70;;;25.20;62.90;;;;;;2536854;54;21012;-69
2023/08/18 00:17:14;;;;;;;3.55;1.75;;;25.10;62.90;;;;;;2300318;55;21568;-67
2023/08/18 00:19:41;;;;;;;3.05;1.75;;;25.10;62.90;;;;;;2312674;55;20999;-70
2023/08/18 00:22:07;;;;;;;3.87;2.17;;;25.00;62.90;;;;;;2313863;55;20979;-69
2023/08/18 00:24:37;;;;;;;4.35;1.98;;;25.00;63.00;;;;;;2553601;54;20944;-70
2023/08/18 00:27:04;;;;;;;3.50;1.77;;;25.00;63.10;;;;;;2550796;54;21031;-69
2023/08/18 00:29:32;;;;;;;3.10;1.73;;;24.90;63.10;;;;;;2525582;54;20936;-69
2023/08/18 00:31:59;;;;;;;3.87;2.35;;;24.90;63.10;;;;;;2553571;54;20987;-70
2023/08/18 00:34:28;;;;;;;4.05;2.20;;;24.80;63.10;;;;;;2553577;54;20952;-70
2023/08/18 00:36:56;;;;;;;3.50;1.80;;;24.80;63.10;;;;;;2554031;54;21029;-66
2023/08/18 00:39:22;;;;;;;3.10;1.90;;;24.70;63.10;;;;;;2303220;55;20957;-70
2023/08/18 00:41:48;;;;;;;3.78;2.03;;;24.70;63.20;;;;;;2300554;55;21824;-70
2023/08/18 00:44:15;;;;;;;3.35;2.25;;;24.60;63.20;;;;;;2314216;55;20971;-68
2023/08/18 00:46:51;;;;;;;4.50;2.30;;;24.60;63.20;;;;;;2313123;55;20920;-68
2023/08/18 00:49:18;;;;;;;5.20;2.22;;;24.60;63.20;;;;;;2551158;54;21329;-69
2023/08/18 00:51:45;;;;;;;4.15;2.28;;;24.50;63.30;;;;;;2552289;54;21090;-71
2023/08/18 00:54:12;;;;;;;2.85;1.75;;;24.50;63.40;;;;;;2313279;55;20928;-69
2023/08/18 00:56:39;;;;;;;4.28;2.40;;;24.40;63.30;;;;;;2312889;55;21064;-69
2023/08/18 00:59:06;;;;;;;7.45;2.30;;;24.40;63.30;;;;;;2313980;55;21461;-68
2023/08/18 01:01:35;;;;;;;4.78;1.83;;;24.40;63.40;;;;;;2313607;55;20948;-68
2023/08/18 01:04:02;;;;;;;3.08;1.80;;;24.30;63.30;;;;;;2294148;55;20946;-68
2023/08/18 01:06:28;;;;;;;4.50;2.00;;;24.30;63.30;;;;;;2492135;54;1328870;-66
2023/08/18 01:08:55;;;;;;;4.30;2.22;;;24.30;63.40;;;;;;2314005;55;21028;-69
2023/08/18 01:12:19;;;;;;;3.70;1.75;;;24.20;63.30;;;;;;2313386;55;21880;-68
2023/08/18 01:15:11;;;;;;;3.87;1.73;;;24.20;63.30;;;;;;2552879;54;20975;-68
2023/08/18 01:17:49;;;;;;;4.22;1.87;;;24.20;63.30;;;;;;2313591;55;20971;-69
2023/08/18 01:20:15;;;;;;;4.30;2.10;;;24.10;63.30;;;;;;2314201;55;20958;-68
2023/08/18 01:22:41;;;;;;;4.53;1.92;;;24.10;63.50;;;;;;2553933;54;21804;-69
2023/08/18 01:25:08;;;;;;;5.62;2.10;;;24.00;63.40;;;;;;2554158;54;20999;-70
2023/08/18 01:27:34;;;;;;;3.42;1.98;;;24.00;63.50;;;;;;2553529;54;21754;-68
2023/08/18 01:30:01;;;;;;;5.00;1.90;;;23.90;63.40;;;;;;2313786;55;21044;-69
2023/08/18 01:32:43;;;;;;;3.50;1.70;;;23.90;63.50;;;;;;2553936;54;20931;-70
2023/08/18 01:35:09;;;;;;;3.77;2.07;;;23.90;63.30;;;;;;2314114;55;20987;-70
2023/08/18 01:37:35;;;;;;;6.68;2.15;;;23.80;63.40;;;;;;2553825;54;20965;-70
2023/08/18 01:40:03;;;;;;;3.05;1.85;;;23.80;63.50;;;;;;2553760;54;21044;-70
2023/08/18 01:42:29;;;;;;;3.87;1.58;;;23.80;63.50;;;;;;2302346;55;20961;-70
2023/08/18 01:45:02;;;;;;;3.03;1.92;;;23.80;63.60;;;;;;2302748;55;20927;-69
2023/08/18 01:47:29;;;;;;;3.28;1.70;;;23.70;63.40;;;;;;2313698;55;21051;-70
2023/08/18 01:49:56;;;;;;;3.22;1.90;;;23.60;63.40;;;;;;2552984;54;20972;-68
2023/08/18 01:52:22;;;;;;;3.92;2.08;;;23.70;63.60;;;;;;2313676;55;20976;-69
2023/08/18 01:54:52;;;;;;;4.62;1.77;;;23.60;63.50;;;;;;2313152;55;20936;-70
2023/08/18 01:57:18;;;;;;;3.58;1.87;;;23.60;63.60;;;;;;2313946;55;21016;-70
2023/08/18 01:59:44;;;;;;;3.87;2.33;;;23.50;63.60;;;;;;2313435;55;20955;-69
2023/08/18 02:02:12;;;;;;;4.25;2.30;;;23.50;63.70;;;;;;2304978;55;21013;-70
2023/08/18 02:04:38;;;;;;;4.40;2.03;;;23.50;63.80;;;;;;2533431;54;21020;-68
2023/08/18 02:07:04;;;;;;;3.40;1.58;;;23.40;63.80;;;;;;2553208;54;20944;-67
2023/08/18 02:09:31;;;;;;;3.42;1.77;;;23.40;63.90;;;;;;2553507;54;21047;-72
2023/08/18 02:11:58;;;;;;;3.10;1.67;;;23.40;63.90;;;;;;2313105;55;20956;-69
2023/08/18 02:14:25;;;;;;;5.53;1.80;;;23.40;63.90;;;;;;2553299;54;20959;-70
2023/08/18 02:16:51;;;;;;;3.90;1.92;;;23.30;63.80;;;;;;2528833;54;20957;-70
2023/08/18 02:19:17;;;;;;;4.40;1.77;;;23.30;63.80;;;;;;2306760;55;21027;-71
2023/08/18 02:21:44;;;;;;;3.87;2.00;;;23.30;63.80;;;;;;2553246;54;21784;-70
2023/08/18 02:24:10;;;;;;;3.10;1.62;;;23.20;63.80;;;;;;2313071;55;21031;-70
2023/08/18 02:26:37;;;;;;;3.30;1.90;;;23.20;63.80;;;;;;2313491;55;21056;-71
2023/08/18 02:29:03;;;;;;;4.00;1.90;;;23.20;63.80;;;;;;2553356;54;20939;-70
2023/08/18 02:31:30;;;;;;;3.65;2.10;;;23.20;63.80;;;;;;2553365;54;20927;-70
2023/08/18 02:33:56;;;;;;;4.35;1.77;;;23.10;63.70;;;;;;2552988;54;21562;-69
2023/08/18 02:36:23;;;;;;;4.57;1.83;;;23.10;63.70;;;;;;2553203;54;20971;-68
2023/08/18 02:38:49;;;;;;;4.87;2.05;;;23.10;63.80;;;;;;2313022;55;20959;-70
2023/08/18 02:41:17;;;;;;;4.40;1.80;;;23.00;63.80;;;;;;2313640;55;20939;-70
2023/08/18 02:43:49;;;;;;;3.80;1.58;;;23.00;63.80;;;;;;2312933;55;20976;-70
2023/08/18 02:46:16;;;;;;;3.92;1.73;;;23.00;63.80;;;;;;2551425;54;20919;-68
2023/08/18 02:48:45;;;;;;;2.85;1.40;;;22.90;63.60;;;;;;2305735;55;21077;-70
2023/08/18 02:51:12;;;;;;;3.12;1.60;;;22.90;63.60;;;;;;2278350;56;21397;-69
2023/08/18 02:53:38;;;;;;;3.42;1.67;;;22.90;63.60;;;;;;2313846;55;20959;-69
2023/08/18 02:56:05;;;;;;;5.10;1.90;;;22.80;63.60;;;;;;2313485;55;20935;-70
2023/08/18 02:58:33;;;;;;;2.78;1.58;;;22.80;63.70;;;;;;2553601;54;20979;-70
2023/08/18 03:01:04;;;;;;;5.03;1.80;;;22.70;63.80;;;;;;2553755;54;21757;-72
2023/08/18 03:03:33;;;;;;;4.10;2.03;;;22.70;63.90;;;;;;2313882;55;20948;-71
2023/08/18 03:06:01;;;;;;;3.70;1.87;;;22.70;64.00;;;;;;2552630;54;21755;-68
2023/08/18 03:08:27;;;;;;;3.53;1.50;;;22.70;64.10;;;;;;2553908;54;20993;-69
2023/08/18 03:10:58;;;;;;;2.40;1.42;;;22.70;64.10;;;;;;2553138;54;20932;-68
2023/08/18 03:13:28;;;;;;;2.97;1.60;;;22.60;63.80;;;;;;2553153;54;20963;-70
2023/08/18 03:15:55;;;;;;;3.42;1.23;;;22.60;63.90;;;;;;2302189;55;20997;-70
2023/08/18 03:18:21;;;;;;;3.15;1.50;;;22.60;63.90;;;;;;2537418;54;20956;-69
2023/08/18 03:20:50;;;;;;;5.57;1.42;;;22.50;63.80;;;;;;2313561;55;20948;-71
2023/08/18 03:23:20;;;;;;;2.90;1.50;;;22.50;63.90;;;;;;2291362;55;20928;-68
2023/08/18 03:25:47;;;;;;;4.00;1.50;;;22.50;63.90;;;;;;2553289;54;21675;-69
2023/08/18 03:28:14;;;;;;;3.37;1.48;;;22.50;64.00;;;;;;2552653;54;21039;-70
2023/08/18 03:30:41;;;;;;;2.47;1.35;;;22.50;64.10;;;;;;2313192;55;20995;-68
2023/08/18 03:33:07;;;;;;;3.95;1.50;;;22.40;64.00;;;;;;2551645;54;21019;-70
2023/08/18 03:35:36;;;;;;;4.25;1.70;;;22.50;64.10;;;;;;2543105;54;21041;-70
2023/08/18 03:38:03;;;;;;;4.60;1.50;;;22.40;64.00;;;;;;2291852;55;21045;-69
2023/08/18 03:40:29;;;;;;;3.78;1.30;;;22.40;64.00;;;;;;2295825;55;21020;-71
2023/08/18 03:42:56;;;;;;;2.97;1.50;;;22.40;64.00;;;;;;2552523;54;21066;-68
2023/08/18 03:45:22;;;;;;;2.83;1.37;;;22.40;64.00;;;;;;2554045;54;21539;-71
2023/08/18 03:47:49;;;;;;;2.72;1.20;;;22.30;63.90;;;;;;2552741;54;20983;-70
2023/08/18 03:50:21;;;;;;;2.90;1.55;;;22.30;63.90;;;;;;2552986;54;20916;-68
2023/08/18 03:52:50;;;;;;;3.33;1.87;;;22.30;64.00;;;;;;2298592;55;20973;-72
2023/08/18 03:55:18;;;;;;;2.90;1.45;;;22.30;64.10;;;;;;2543805;54;20995;-70
2023/08/18 03:57:44;;;;;;;2.97;1.55;;;22.30;64.10;;;;;;2313390;55;20967;-70
2023/08/18 04:00:13;;;;;;;2.37;1.10;;;22.30;64.10;;;;;;2290769;55;21858;-70
2023/08/18 04:02:40;;;;;;;3.45;1.60;;;22.20;63.90;;;;;;2313253;55;20966;-69
2023/08/18 04:05:08;;;;;;;3.12;1.40;;;22.20;64.10;;;;;;2551079;54;20947;-70
2023/08/18 04:07:35;;;;;;;2.50;1.20;;;22.20;64.20;;;;;;2552976;54;21015;-70
2023/08/18 04:10:01;;;;;;;4.72;1.62;;;22.20;64.20;;;;;;2301927;55;21025;-69
2023/08/18 04:12:27;;;;;;;2.70;1.50;;;22.20;64.20;;;;;;2538209;54;20943;-68
2023/08/18 04:14:54;;;;;;;2.60;1.40;;;22.20;64.20;;;;;;2553326;54;20999;-70
2023/08/18 04:17:20;;;;;;;2.65;1.10;;;22.10;64.10;;;;;;2317101;55;20972;-69
2023/08/18 04:19:47;;;;;;;3.12;1.42;;;22.10;64.10;;;;;;2313036;55;20943;-69
2023/08/18 04:22:13;;;;;;;3.10;1.40;;;22.10;64.10;;;;;;2312964;55;20943;-71
2023/08/18 04:24:39;;;;;;;2.80;1.30;;;22.10;64.10;;;;;;2312693;55;20944;-69
2023/08/18 04:27:06;;;;;;;3.85;1.30;;;22.10;64.00;;;;;;2312613;55;20972;-72
2023/08/18 04:29:33;;;;;;;5.00;1.52;;;22.00;63.90;;;;;;2553337;54;20939;-69
2023/08/18 04:32:00;;;;;;;2.80;1.60;;;22.00;63.80;;;;;;2313088;55;20929;-68
2023/08/18 04:34:26;;;;;;;4.03;1.60;;;22.00;64.00;;;;;;2313489;55;21015;-70
2023/08/18 04:36:53;;;;;;;3.20;1.60;;;21.90;64.00;;;;;;2313315;55;20936;-71
2023/08/18 04:39:21;;;;;;;3.83;1.70;;;21.90;64.10;;;;;;2552515;54;20992;-69
2023/08/18 04:41:48;;;;;;;4.93;2.10;;;21.90;64.20;;;;;;2553083;54;20960;-68
2023/08/18 04:44:16;;;;;;;3.72;1.62;;;21.80;64.20;;;;;;2313146;55;21093;-70
2023/08/18 04:46:42;;;;;;;7.07;1.62;;;21.80;64.30;;;;;;2553335;54;21042;-69
2023/08/18 04:49:08;;;;;;;2.85;1.55;;;21.80;64.30;;;;;;2534301;54;20989;-69
2023/08/18 04:51:35;;;;;;;2.95;1.60;;;21.80;64.30;;;;;;2512132;54;21016;-69
2023/08/18 04:54:02;;;;;;;3.03;1.42;;;21.80;64.30;;;;;;2552876;54;20975;-69
2023/08/18 04:56:28;;;;;;;2.67;1.42;;;21.80;64.30;;;;;;2553614;54;20996;-69
2023/08/18 04:58:55;;;;;;;4.95;1.62;;;21.70;64.30;;;;;;2312925;55;21462;-70
2023/08/18 05:01:21;;;;;;;2.92;1.40;;;21.70;64.40;;;;;;2313642;55;20969;-68
2023/08/18 05:03:48;;;;;;;3.05;1.48;;;21.70;64.40;;;;;;2552538;54;20966;-68
2023/08/18 05:06:14;;;;;;;3.40;1.67;;;21.70;64.40;;;;;;2313379;55;21508;-70
2023/08/18 05:08:41;;;;;;;3.20;1.50;;;21.70;64.50;;;;;;2543726;54;20993;-69
2023/08/18 05:11:10;;;;;;;2.80;1.25;;;21.70;64.60;;;;;;2295111;55;21019;-70
2023/08/18 05:13:38;;;;;;;3.22;1.60;;;21.70;64.60;;;;;;2548873;54;20939;-70
2023/08/18 05:16:04;;;;;;;2.50;1.20;;;21.70;64.70;;;;;;2551640;54;21102;-72
2023/08/18 05:18:30;;;;;;;2.67;1.40;;;21.70;64.70;;;;;;2552953;54;20919;-70
2023/08/18 05:21:00;;;;;;;2.92;1.33;;;21.70;64.70;;;;;;2313086;55;21020;-70
2023/08/18 05:23:28;;;;;;;3.65;1.70;;;21.70;64.80;;;;;;2314134;55;20928;-70
2023/08/18 05:25:54;;;;;;;3.15;1.70;;;21.60;64.90;;;;;;2531671;54;21033;-70
2023/08/18 05:28:21;;;;;;;3.47;1.62;;;21.70;65.10;;;;;;2304756;55;21021;-70
2023/08/18 05:30:50;;;;;;;2.97;1.55;;;21.60;65.10;;;;;;2525860;54;21037;-70
2023/08/18 05:33:18;;;;;;;3.05;1.65;;;21.70;65.10;;;;;;2549731;54;20995;-70
2023/08/18 05:35:48;;;;;;;2.62;1.42;;;21.60;65.10;;;;;;2553859;54;20988;-69
2023/08/18 05:38:16;;;;;;;3.92;1.52;;;21.70;65.30;;;;;;2313336;55;21008;-70
2023/08/18 05:40:44;;;;;;;2.60;1.40;;;21.70;65.30;;;;;;2553266;54;20941;-69
2023/08/18 05:43:12;;;;;;;2.92;1.77;;;21.70;65.40;;;;;;2313371;55;20931;-71
2023/08/18 05:45:38;;;;;;;3.08;1.70;;;21.70;65.40;;;;;;2312895;55;20968;-72
2023/08/18 05:48:06;;;;;;;3.33;1.58;;;21.70;65.50;;;;;;2313093;55;20956;-72
2023/08/18 05:50:38;;;;;;;2.90;1.67;;;21.70;65.60;;;;;;2546216;54;21472;-70
2023/08/18 05:53:04;;;;;;;3.50;1.70;;;21.80;65.70;;;;;;2285323;56;21479;-69
2023/08/18 05:55:36;;;;;;;3.20;1.40;;;21.80;65.70;;;;;;2528404;54;21116;-70
2023/08/18 05:58:04;;;;;;;3.10;1.50;;;21.80;65.70;;;;;;2502332;55;20936;-70
2023/08/18 06:00:37;;;;;;;3.35;1.58;;;21.80;65.70;;;;;;2548775;54;20956;-70
2023/08/18 06:03:10;;;;;;;4.37;1.85;;;21.80;65.70;;;;;;2521395;54;21008;-70
2023/08/18 06:05:38;;;;;;;3.53;1.73;;;21.90;66.00;;;;;;2553090;54;21323;-66
2023/08/18 06:08:08;;;;;;;4.00;1.73;;;21.90;66.10;;;;;;2281955;55;21616;-71
2023/08/18 06:10:39;;;;;;;6.00;2.05;;;21.90;66.10;;;;;;2495347;55;20940;-69
2023/08/18 06:13:09;;;;;;;4.53;1.90;;;21.90;66.30;;;;;;2515387;54;21020;-72
2023/08/18 06:15:45;;;;;;;3.35;1.95;;;22.00;66.40;;;;;;2525360;54;20920;-70
2023/08/18 06:18:19;;;;;;;3.53;1.60;;;22.10;66.60;;;;;;2519494;54;20974;-68
2023/08/18 06:20:54;;;;;;;3.72;1.67;;;22.00;66.40;;;;;;2292246;55;21406;-69
2023/08/18 06:23:21;;;;;;;3.25;1.87;;;22.20;67.40;;;;;;2530945;54;21024;-72
2023/08/18 06:26:00;;;;;;;3.08;1.48;;;22.20;66.60;;;;;;2529130;54;21029;-70
2023/08/18 06:28:27;;;;;;;5.35;1.60;;;22.30;66.80;;;;;;2298380;55;20983;-70
2023/08/18 06:31:09;;;;;;;3.53;1.62;;;22.30;66.80;;;;;;2532029;54;20978;-70
2023/08/18 06:33:37;;;;;;;3.72;1.62;;;22.40;67.00;;;;;;2545607;54;20952;-70
2023/08/18 06:36:06;;;;;;;4.72;1.58;;;22.40;67.00;;;;;;2314602;55;21023;-69
2023/08/18 06:38:34;;;;;;;3.83;1.90;;;22.50;67.10;;;;;;2524974;54;20918;-71
2023/08/18 06:41:00;;;;;;;2.87;1.62;;;22.50;67.30;;;;;;2551830;54;21354;-69
2023/08/18 06:43:27;;;;;;;3.35;1.85;;;22.60;67.50;;;;;;2312961;55;20979;-70
2023/08/18 06:45:53;;;;;;;3.80;2.03;;;22.60;67.50;;;;;;2314108;55;20935;-72
2023/08/18 06:48:19;;;;;;;3.62;1.87;;;22.70;67.70;;;;;;2313740;55;20904;-71
2023/08/18 06:50:48;;;;;;;3.90;1.95;;;22.80;67.70;;;;;;2521147;54;21473;-70
2023/08/18 06:53:15;;;;;;;3.42;1.95;;;22.80;67.60;;;;;;2314352;55;21217;-70
2023/08/18 06:55:41;;;;;;;3.55;1.48;;;22.90;67.50;;;;;;2313270;55;21870;-69
2023/08/18 06:58:07;;;;;;;3.58;1.80;;;23.00;67.50;;;;;;2313410;55;20987;-69
2023/08/18 07:00:34;;;;;;;3.75;1.65;;;23.10;67.50;;;;;;2553050;54;20995;-70
2023/08/18 07:03:00;;;;;;;3.17;1.75;;;23.20;67.50;;;;;;2313844;55;21441;-70
2023/08/18 07:05:26;;;;;;;2.75;1.52;;;23.20;67.30;;;;;;2313175;55;20974;-71
2023/08/18 07:07:55;;;;;;;6.45;1.90;;;23.30;67.30;;;;;;2553933;54;20981;-70
2023/08/18 07:10:24;;;;;;;6.10;1.98;;;23.40;67.20;;;;;;2553185;54;20999;-70
2023/08/18 07:12:50;;;;;;;4.22;1.98;;;23.50;67.20;;;;;;2544348;54;20961;-70
2023/08/18 07:15:18;;;;;;;4.07;1.65;;;23.50;67.20;;;;;;2531360;54;20943;-70
2023/08/18 07:17:44;;;;;;;3.45;1.52;;;23.60;67.10;;;;;;2312855;55;20951;-72
2023/08/18 07:20:12;;;;;;;3.35;1.45;;;23.70;67.10;;;;;;2313360;55;21797;-69
2023/08/18 07:22:38;;;;;;;3.58;2.00;;;23.80;67.00;;;;;;2313523;55;21458;-71
2023/08/18 07:25:10;;;;;;;4.97;1.90;;;23.80;67.00;;;;;;2313655;55;20880;-72
2023/08/18 07:27:39;;;;;;;3.60;1.73;;;23.90;67.00;;;;;;2285154;56;20948;-72
2023/08/18 07:30:07;;;;;;;2.87;1.80;;;24.00;67.00;;;;;;2299774;55;21810;-70
2023/08/18 07:32:36;;;;;;;3.28;1.80;;;24.10;67.00;;;;;;2313910;55;21127;-69
2023/08/18 07:35:08;;;;;;;4.53;1.73;;;24.10;67.00;;;;;;2553348;54;21278;-72
2023/08/18 07:37:38;;;;;;;4.60;1.60;;;24.20;67.10;;;;;;2554191;54;20955;-70
2023/08/18 07:40:18;;;;;;;3.25;1.77;;;24.30;67.20;;;;;;2313073;55;21410;-70
2023/08/18 07:42:47;;;;;;;2.65;1.67;;;24.40;67.20;;;;;;2553230;54;21004;-70
2023/08/18 07:45:13;;;;;;;4.00;1.60;;;24.40;67.20;;;;;;2313561;55;21864;-71
2023/08/18 07:47:42;;;;;;;2.85;1.77;;;24.50;67.30;;;;;;2553171;54;21548;-72
2023/08/18 07:50:11;;;;;;;3.55;1.90;;;24.60;67.30;;;;;;2553014;54;20935;-73
2023/08/18 07:52:41;;;;;;;3.10;1.62;;;24.70;67.20;;;;;;2312727;55;21059;-69
2023/08/18 07:55:08;;;;;;;3.95;1.80;;;24.80;67.30;;;;;;2552075;54;20999;-72
2023/08/18 07:57:34;;;;;;;3.53;1.70;;;24.90;67.30;;;;;;2552191;54;20951;-70
2023/08/18 08:00:07;;;;;;;3.80;1.83;;;25.00;67.30;;;;;;2552523;54;21008;-71
2023/08/18 08:02:33;;;;;;;4.85;1.70;;;25.00;67.20;;;;;;2552706;54;21062;-69
2023/08/18 08:05:01;;;;;;;3.40;1.95;;;25.10;67.20;;;;;;2290605;56;20968;-70
2023/08/18 08:07:28;;;;;;;3.87;1.85;;;25.20;67.30;;;;;;2553321;54;20940;-70
2023/08/18 08:09:56;;;;;;;3.35;1.90;;;25.30;67.20;;;;;;2313751;55;21016;-70
2023/08/18 08:12:25;;;;;;;5.57;1.87;;;25.40;67.00;;;;;;2553558;54;20940;-71
2023/08/18 08:14:52;;;;;;;3.17;1.50;;;25.40;66.80;;;;;;2554353;54;21775;-70
2023/08/18 08:17:19;;;;;;;3.85;1.90;;;25.60;66.80;;;;;;2547215;54;21077;-70
2023/08/18 08:19:47;;;;;;;4.03;1.55;;;25.60;66.60;;;;;;2294337;55;20936;-70
2023/08/18 08:22:16;;;;;;;4.30;1.90;;;25.70;66.50;;;;;;2554950;54;20972;-70
2023/08/18 08:24:43;;;;;;;3.53;2.05;;;25.80;66.50;;;;;;2553379;54;20916;-69
2023/08/18 08:27:15;;;;;;;3.05;1.80;;;25.90;66.40;;;;;;2314172;55;20972;-73
2023/08/18 08:29:41;;;;;;;3.50;1.60;;;26.00;66.20;;;;;;2290727;56;21106;-69
2023/08/18 08:32:08;;;;;;;3.55;1.92;;;26.00;65.90;;;;;;2553731;54;21539;-71
2023/08/18 08:34:38;;;;;;;4.22;1.70;;;26.10;65.50;;;;;;2292993;56;20993;-72
2023/08/18 08:37:04;;;;;;;5.07;1.90;;;26.20;65.40;;;;;;2311063;55;21035;-70
2023/08/18 08:39:31;;;;;;;4.30;2.50;;;26.30;65.60;;;;;;2313800;55;20947;-71
2023/08/18 08:41:57;;;;;;;5.82;2.40;;;26.30;65.50;;;;;;2313605;55;20944;-69
2023/08/18 08:44:25;;;;;;;4.25;2.12;;;26.40;65.50;;;;;;2313525;55;20939;-73
2023/08/18 08:46:52;;;;;;;3.53;1.95;;;26.50;65.60;;;;;;2313219;55;20924;-70
2023/08/18 08:49:19;;;;;;;3.67;2.00;;;26.50;65.50;;;;;;2553149;54;21807;-71
2023/08/18 08:51:51;;;;;;;5.10;1.80;;;26.60;65.40;;;;;;2546848;54;21021;-70
2023/08/18 08:54:21;;;;;;;3.12;1.77;;;26.70;65.40;;;;;;2294247;55;20975;-69
2023/08/18 08:56:47;;;;;;;3.05;1.80;;;26.80;65.00;;;;;;2312929;55;20931;-70
2023/08/18 08:59:14;;;;;;;4.87;2.15;;;26.80;65.00;;;;;;2313542;55;20947;-70
2023/08/18 09:01:44;;;;;;;3.50;1.85;;;26.90;64.90;;;;;;2553057;54;20932;-69
2023/08/18 09:04:11;;;;;;;3.92;2.12;;;27.00;64.90;;;;;;2294613;55;21005;-70
2023/08/18 09:06:43;;;;;;;2.78;1.67;;;27.00;64.60;;;;;;2525170;54;20924;-71
2023/08/18 09:09:11;;;;;;;4.03;1.95;;;27.10;64.60;;;;;;2314166;55;20980;-70
2023/08/18 09:11:47;;;;;;;3.37;1.87;;;27.20;65.30;;;;;;2313536;55;20956;-70
2023/08/18 09:14:15;;;;;;;4.10;1.92;;;27.30;64.50;;;;;;2553767;54;20963;-71
2023/08/18 09:16:44;;;;;;;3.80;2.17;;;27.30;64.50;;;;;;2313411;55;21094;-70
2023/08/18 09:19:12;;;;;;;4.30;2.50;;;27.40;64.60;;;;;;2553865;54;20971;-71
2023/08/18 09:21:39;;;;;;;4.87;2.30;;;27.50;64.50;;;;;;2314016;55;21448;-71
2023/08/18 09:24:06;;;;;;;3.65;2.00;;;27.50;64.50;;;;;;2552968;54;20940;-71
2023/08/18 09:26:33;;;;;;;3.28;1.90;;;27.60;64.40;;;;;;2553694;54;20928;-72
2023/08/18 09:29:00;;;;;;;3.35;2.00;;;27.70;64.50;;;;;;2313663;55;20960;-71
2023/08/18 09:31:26;;;;;;;3.65;2.00;;;27.80;64.60;;;;;;2553347;54;21833;-71
2023/08/18 09:33:56;;;;;;;3.62;2.03;;;27.90;64.50;;;;;;2553829;54;20992;-71
2023/08/18 09:36:24;;;;;;;3.70;1.77;;;28.00;64.50;;;;;;2314266;55;20959;-71
2023/08/18 09:38:53;;;;;;;3.95;2.20;;;28.10;64.50;;;;;;2515821;55;20966;-71
2023/08/18 09:41:19;;;;;;;3.58;2.05;;;28.00;64.40;;;;;;2257452;56;21008;-71
2023/08/18 09:43:46;;;;;;;3.28;1.95;;;28.20;64.30;;;;;;2281894;55;21021;-71
2023/08/18 09:46:13;;;;;;;3.90;1.98;;;28.30;64.30;;;;;;2516164;55;20966;-71
2023/08/18 09:48:39;;;;;;;3.50;2.20;;;28.40;64.20;;;;;;2277082;55;21600;-70
2023/08/18 09:51:06;;;;;;;4.87;2.20;;;28.50;64.00;;;;;;2281321;56;20982;-70
2023/08/18 09:53:33;;;;;;;3.70;1.92;;;28.50;63.90;;;;;;2281480;56;21034;-70
2023/08/18 09:56:14;;;;;;;2.95;1.98;;;28.60;64.00;;;;;;2514969;55;21097;-70
2023/08/18 09:58:54;;;;;;;2.78;1.62;;;28.70;63.40;;;;;;2281255;56;20974;-72
2023/08/18 10:01:20;;;;;;;3.35;1.95;;;28.80;63.80;;;;;;2515498;55;20934;-71
2023/08/18 10:03:47;;;;;;;3.83;1.87;;;28.90;63.80;;;;;;2282800;56;20947;-72
2023/08/18 10:06:13;;;;;;;4.87;2.08;;;28.90;63.50;;;;;;2515805;55;20946;-71
2023/08/18 10:08:41;;;;;;;3.22;1.75;;;29.00;63.50;;;;;;2281604;56;21010;-70
2023/08/18 10:11:07;;;;;;;3.60;2.00;;;29.10;63.50;;;;;;2282573;56;20966;-71
2023/08/18 10:13:34;;;;;;;3.53;2.10;;;29.10;63.10;;;;;;2515201;55;21010;-71
2023/08/18 10:16:02;;;;;;;4.90;1.92;;;29.20;63.10;;;;;;2515288;55;20998;-71
2023/08/18 10:18:31;;;;;;;3.85;1.92;;;29.30;62.90;;;;;;2282124;56;20941;-69
2023/08/18 10:20:57;;;;;;;6.03;1.98;;;29.40;62.90;;;;;;2293427;55;20979;-70
2023/08/18 10:23:24;;;;;;;4.05;2.08;;;29.40;62.80;;;;;;2531506;54;20965;-70
2023/08/18 10:25:52;;;;;;;3.97;1.95;;;29.50;62.90;;;;;;2528157;54;20928;-71
2023/08/18 10:28:19;;;;;;;4.30;1.95;;;29.60;62.80;;;;;;2309138;55;21885;-70
2023/08/18 10:31:14;;;;;;;3.30;1.92;;;29.60;62.70;;;;;;2306788;55;20959;-71
2023/08/18 10:33:43;;;;;;;4.03;1.70;;;29.70;62.20;;;;;;2534158;54;20989;-71
2023/08/18 10:36:28;;;;;;;4.47;2.00;;;29.80;62.40;;;;;;2290559;55;20956;-71
2023/08/18 10:38:55;;;;;;;4.10;2.08;;;29.90;61.70;;;;;;2286398;55;21785;-72
2023/08/18 10:41:25;;;;;;;4.70;2.08;;;30.00;62.40;;;;;;2308321;55;20980;-72
2023/08/18 10:43:57;;;;;;;3.20;1.95;;;30.10;61.90;;;;;;2546322;54;20948;-73
2023/08/18 10:46:36;;;;;;;3.22;1.90;;;30.20;62.10;;;;;;2307953;55;20928;-73
2023/08/18 10:49:02;;;;;;;3.70;1.87;;;30.20;61.20;;;;;;2540913;54;21008;-72
2023/08/18 10:51:29;;;;;;;3.20;2.10;;;30.30;61.80;;;;;;2538147;54;21451;-71
2023/08/18 10:53:55;;;;;;;3.53;2.00;;;30.30;61.50;;;;;;2285183;55;20940;-71
2023/08/18 10:56:24;;;;;;;3.28;2.10;;;30.40;61.30;;;;;;2298342;55;20918;-72
2023/08/18 10:58:51;;;;;;;4.18;2.00;;;30.50;61.20;;;;;;2525713;54;21035;-72
2023/08/18 11:01:19;;;;;;;3.97;2.12;;;30.60;60.90;;;;;;2307563;55;20987;-71
2023/08/18 11:03:45;;;;;;;4.12;2.33;;;30.60;60.90;;;;;;2281954;55;20983;-71
2023/08/18 11:06:12;;;;;;;3.58;2.20;;;30.70;60.90;;;;;;2546973;54;20999;-70
2023/08/18 11:08:39;;;;;;;3.78;2.10;;;30.80;60.80;;;;;;2545934;54;20995;-71
2023/08/18 11:11:05;;;;;;;3.30;1.92;;;30.80;60.80;;;;;;2290147;55;20945;-70
2023/08/18 11:13:32;;;;;;;5.50;2.90;;;30.90;60.80;;;;;;2538736;54;20952;-69
2023/08/18 11:15:58;;;;;;;4.60;2.53;;;30.90;60.80;;;;;;2308518;55;20995;-70
2023/08/18 11:18:25;;;;;;;3.53;1.83;;;31.00;60.90;;;;;;2308064;55;21729;-70
2023/08/18 11:20:52;;;;;;;3.70;1.87;;;31.10;60.80;;;;;;2308314;55;21003;-71
2023/08/18 11:23:19;;;;;;;3.15;1.77;;;31.20;60.70;;;;;;2308625;55;20964;-69
2023/08/18 11:25:45;;;;;;;3.33;1.80;;;31.30;60.50;;;;;;2308048;55;20968;-70
2023/08/18 11:28:12;;;;;;;3.67;1.85;;;31.30;60.30;;;;;;2308427;55;20979;-71
2023/08/18 11:30:38;;;;;;;4.28;2.30;;;31.40;60.20;;;;;;2546235;54;21030;-69
2023/08/18 11:33:05;;;;;;;3.00;1.80;;;31.40;60.40;;;;;;2546336;54;21019;-70
2023/08/18 11:35:32;;;;;;;3.53;1.62;;;31.50;60.20;;;;;;2308679;55;20928;-71
2023/08/18 11:37:59;;;;;;;3.10;1.95;;;31.60;60.00;;;;;;2311658;55;21003;-70
2023/08/18 11:40:25;;;;;;;3.45;1.90;;;31.60;59.80;;;;;;2547807;54;21762;-71
2023/08/18 11:42:53;;;;;;;3.05;1.95;;;31.70;59.70;;;;;;2308240;55;20991;-70
2023/08/18 11:45:28;;;;;;;4.20;2.15;;;31.80;59.80;;;;;;2308421;55;21011;-72
2023/08/18 11:48:13;;;;;;;3.80;2.30;;;31.90;58.70;;;;;;2510019;54;21417;-71
2023/08/18 11:50:45;;;;;;;2.80;1.67;;;31.90;59.10;;;;;;2307598;55;21822;-71
2023/08/18 11:53:12;;;;;;;2.83;1.85;;;32.00;59.20;;;;;;2305439;55;20966;-70
2023/08/18 11:55:42;;;;;;;4.45;1.90;;;32.10;59.20;;;;;;2535138;54;21038;-70
2023/08/18 11:58:14;;;;;;;2.97;1.65;;;32.10;58.70;;;;;;2270303;56;20946;-70
2023/08/18 12:00:41;;;;;;;3.37;1.75;;;32.10;58.80;;;;;;2307547;55;20956;-71
2023/08/18 12:03:25;;;;;;;2.90;1.70;;;32.20;58.90;;;;;;2308325;55;21007;-70
2023/08/18 12:05:53;;;;;;;3.08;1.77;;;32.30;58.10;;;;;;2546659;54;21474;-71
2023/08/18 12:08:19;;;;;;;5.12;2.00;;;32.30;58.50;;;;;;2546904;54;21038;-71
2023/08/18 12:10:48;;;;;;;3.97;1.58;;;32.40;58.30;;;;;;2546629;54;21051;-71
2023/08/18 12:13:17;;;;;;;3.42;2.00;;;32.40;58.10;;;;;;2541876;54;20973;-71
2023/08/18 12:15:43;;;;;;;3.45;1.90;;;32.50;57.90;;;;;;2546782;54;20999;-72
2023/08/18 12:18:11;;;;;;;3.28;1.95;;;32.50;58.20;;;;;;2307305;55;20943;-70
2023/08/18 12:20:37;;;;;;;3.67;1.60;;;32.60;57.90;;;;;;2546667;54;20924;-68
2023/08/18 12:23:04;;;;;;;3.37;1.70;;;32.60;57.90;;;;;;2308360;55;21362;-70
2023/08/18 12:25:31;;;;;;;3.42;1.73;;;32.60;57.60;;;;;;2547179;54;21023;-70
2023/08/18 12:27:58;;;;;;;3.35;1.60;;;32.70;57.80;;;;;;2545957;54;21718;-70
2023/08/18 12:30:25;;;;;;;3.08;1.73;;;32.70;57.50;;;;;;2546643;54;21298;-71
2023/08/18 12:32:52;;;;;;;3.22;1.60;;;32.70;57.40;;;;;;2546521;54;21035;-69
2023/08/18 12:35:18;;;;;;;3.55;1.60;;;32.80;57.40;;;;;;2308322;55;21567;-71
2023/08/18 12:37:44;;;;;;;3.75;1.90;;;32.80;57.50;;;;;;2546314;54;21079;-69
2023/08/18 12:40:11;;;;;;;3.92;1.98;;;32.90;57.30;;;;;;2308426;55;20975;-69
2023/08/18 12:42:38;;;;;;;4.25;2.05;;;32.90;57.30;;;;;;2281518;56;20961;-68
2023/08/18 12:45:05;;;;;;;5.97;1.85;;;32.90;57.30;;;;;;2547262;54;21051;-71
2023/08/18 12:47:32;;;;;;;3.45;1.80;;;33.00;57.40;;;;;;2308132;55;20999;-68
2023/08/18 12:49:59;;;;;;;2.92;1.60;;;33.00;57.10;;;;;;2546109;54;21047;-69
2023/08/18 12:52:25;;;;;;;3.10;1.55;;;33.10;57.20;;;;;;2286310;55;21052;-70